sensor_id;sensor_type;location;lat;lon;timestamp;pressure;altitude;pressure_sealevel;temperature;humidity
64853;BME280;56050;55.558;-4.644;2022-08-19T00:01:47;100776.88;;;16.90;61.71
64853;BME280;56050;55.558;-4.644;2022-08-19T00:04:14;100769.47;;;16.91;61.93
64853;BME280;56050;55.558;-4.644;2022-08-19T00:06:42;100770.56;;;16.93;61.86
64853;BME280;56050;55.558;-4.644;2022-08-19T00:09:11;100771.78;;;16.92;62.06
64853;BME280;56050;55.558;-4.644;2022-08-19T00:11:37;100782.31;;;16.90;61.89
64853;BME280;56050;55.558;-4.644;2022-08-19T00:14:04;100775.38;;;16.89;61.88
64853;BME280;56050;55.558;-4.644;2022-08-19T00:16:29;100779.25;;;16.88;62.06
64853;BME280;56050;55.558;-4.644;2022-08-19T00:18:55;100781.22;;;16.88;62.20
64853;BME280;56050;55.558;-4.644;2022-08-19T00:21:23;100782.44;;;16.87;62.10
64853;BME280;56050;55.558;-4.644;2022-08-19T00:23:48;100783.16;;;16.87;62.82
64853;BME280;56050;55.558;-4.644;2022-08-19T00:26:14;100785.16;;;16.87;62.76
64853;BME280;56050;55.558;-4.644;2022-08-19T00:28:39;100780.88;;;16.86;62.72
64853;BME280;56050;55.558;-4.644;2022-08-19T00:31:06;100780.56;;;16.84;62.80
64853;BME280;56050;55.558;-4.644;2022-08-19T00:33:32;100784.47;;;16.83;62.73
64853;BME280;56050;55.558;-4.644;2022-08-19T00:35:59;100787.94;;;16.83;62.92
64853;BME280;56050;55.558;-4.644;2022-08-19T00:38:24;100786.00;;;16.84;62.95
64853;BME280;56050;55.558;-4.644;2022-08-19T00:40:50;100782.84;;;16.85;62.68
64853;BME280;56050;55.558;-4.644;2022-08-19T00:43:20;100784.38;;;16.86;62.84
64853;BME280;56050;55.558;-4.644;2022-08-19T00:45:46;100784.38;;;16.86;62.62
64853;BME280;56050;55.558;-4.644;2022-08-19T00:48:13;100785.88;;;16.87;62.79
64853;BME280;56050;55.558;-4.644;2022-08-19T00:50:40;100785.88;;;16.87;62.38
64853;BME280;56050;55.558;-4.644;2022-08-19T00:53:09;100792.09;;;16.88;62.47
64853;BME280;56050;55.558;-4.644;2022-08-19T00:55:37;100792.09;;;16.88;62.72
64853;BME280;56050;55.558;-4.644;2022-08-19T00:58:07;100786.66;;;16.88;62.46
64853;BME280;56050;55.558;-4.644;2022-08-19T01:00:33;100794.50;;;16.86;62.43
64853;BME280;56050;55.558;-4.644;2022-08-19T01:03:07;100792.63;;;16.83;62.64
64853;BME280;56050;55.558;-4.644;2022-08-19T01:05:34;100797.41;;;16.79;62.45
64853;BME280;56050;55.558;-4.644;2022-08-19T01:08:02;100784.66;;;16.76;62.51
64853;BME280;56050;55.558;-4.644;2022-08-19T01:10:32;100787.44;;;16.72;62.26
64853;BME280;56050;55.558;-4.644;2022-08-19T01:13:00;100788.28;;;16.69;62.27
64853;BME280;56050;55.558;-4.644;2022-08-19T01:15:31;100785.66;;;16.66;62.24
64853;BME280;56050;55.558;-4.644;2022-08-19T01:18:04;100789.16;;;16.66;62.69
64853;BME280;56050;55.558;-4.644;2022-08-19T01:20:31;100793.75;;;16.69;62.40
64853;BME280;56050;55.558;-4.644;2022-08-19T01:22:59;100787.84;;;16.71;62.29
64853;BME280;56050;55.558;-4.644;2022-08-19T01:25:29;100785.91;;;16.71;62.44
64853;BME280;56050;55.558;-4.644;2022-08-19T01:27:55;100787.44;;;16.72;62.50
64853;BME280;56050;55.558;-4.644;2022-08-19T01:30:25;100795.94;;;16.74;62.39
64853;BME280;56050;55.558;-4.644;2022-08-19T01:32:52;100802.16;;;16.75;62.45
64853;BME280;56050;55.558;-4.644;2022-08-19T01:35:19;100797.03;;;16.77;62.50
64853;BME280;56050;55.558;-4.644;2022-08-19T01:37:51;100803.69;;;16.76;62.81
64853;BME280;56050;55.558;-4.644;2022-08-19T01:40:19;100804.03;;;16.78;62.62
64853;BME280;56050;55.558;-4.644;2022-08-19T01:42:47;100816.84;;;16.77;62.34
64853;BME280;56050;55.558;-4.644;2022-08-19T01:45:13;100813.38;;;16.77;62.67
64853;BME280;56050;55.558;-4.644;2022-08-19T01:47:38;100804.78;;;16.78;62.56
64853;BME280;56050;55.558;-4.644;2022-08-19T01:50:06;100800.53;;;16.77;62.63
64853;BME280;56050;55.558;-4.644;2022-08-19T01:52:32;100809.88;;;16.76;62.44
64853;BME280;56050;55.558;-4.644;2022-08-19T01:54:59;100795.16;;;16.74;62.62
64853;BME280;56050;55.558;-4.644;2022-08-19T01:57:25;100803.00;;;16.72;62.66
64853;BME280;56050;55.558;-4.644;2022-08-19T01:59:51;100798.41;;;16.69;62.46
64853;BME280;56050;55.558;-4.644;2022-08-19T02:02:16;100805.47;;;16.66;62.75
64853;BME280;56050;55.558;-4.644;2022-08-19T02:04:42;100808.63;;;16.65;62.70
64853;BME280;56050;55.558;-4.644;2022-08-19T02:07:08;100807.84;;;16.64;62.87
64853;BME280;56050;55.558;-4.644;2022-08-19T02:09:34;100806.66;;;16.65;62.85
64853;BME280;56050;55.558;-4.644;2022-08-19T02:12:00;100808.19;;;16.66;62.85
64853;BME280;56050;55.558;-4.644;2022-08-19T02:14:25;100808.19;;;16.66;62.70
64853;BME280;56050;55.558;-4.644;2022-08-19T02:16:51;100806.66;;;16.65;62.98
64853;BME280;56050;55.558;-4.644;2022-08-19T02:19:16;100830.38;;;16.65;62.87
64853;BME280;56050;55.558;-4.644;2022-08-19T02:21:41;100810.25;;;16.62;63.09
64853;BME280;56050;55.558;-4.644;2022-08-19T02:24:09;100811.41;;;16.61;63.22
64853;BME280;56050;55.558;-4.644;2022-08-19T02:26:34;100809.47;;;16.62;63.32
64853;BME280;56050;55.558;-4.644;2022-08-19T02:29:00;100820.69;;;16.64;63.38
64853;BME280;56050;55.558;-4.644;2022-08-19T02:31:26;100821.44;;;16.64;63.39
64853;BME280;56050;55.558;-4.644;2022-08-19T02:33:53;100816.78;;;16.65;63.56
64853;BME280;56050;55.558;-4.644;2022-08-19T02:36:19;100818.41;;;16.62;63.40
64853;BME280;56050;55.558;-4.644;2022-08-19T02:38:45;100809.88;;;16.60;63.44
64853;BME280;56050;55.558;-4.644;2022-08-19T02:41:17;100816.94;;;16.58;63.87
64853;BME280;56050;55.558;-4.644;2022-08-19T02:43:43;100811.50;;;16.58;63.69
64853;BME280;56050;55.558;-4.644;2022-08-19T02:46:21;100823.16;;;16.58;63.66
64853;BME280;56050;55.558;-4.644;2022-08-19T02:48:51;100828.59;;;16.58;63.73
64853;BME280;56050;55.558;-4.644;2022-08-19T02:51:28;100828.59;;;16.58;63.90
64853;BME280;56050;55.558;-4.644;2022-08-19T02:53:54;100822.03;;;16.56;63.66
64853;BME280;56050;55.558;-4.644;2022-08-19T02:56:20;100821.72;;;16.54;63.66
64853;BME280;56050;55.558;-4.644;2022-08-19T02:58:46;100818.59;;;16.52;63.88
64853;BME280;56050;55.558;-4.644;2022-08-19T03:01:21;100812.81;;;16.50;63.76
64853;BME280;56050;55.558;-4.644;2022-08-19T03:03:48;100810.88;;;16.50;63.74
64853;BME280;56050;55.558;-4.644;2022-08-19T03:06:15;100801.63;;;16.48;63.86
64853;BME280;56050;55.558;-4.644;2022-08-19T03:08:43;100812.91;;;16.46;63.94
64853;BME280;56050;55.558;-4.644;2022-08-19T03:11:18;100813.00;;;16.42;63.92
64853;BME280;56050;55.558;-4.644;2022-08-19T03:13:44;100820.31;;;16.45;63.92
64853;BME280;56050;55.558;-4.644;2022-08-19T03:16:10;100814.44;;;16.47;64.04
64853;BME280;56050;55.558;-4.644;2022-08-19T03:18:37;100813.66;;;16.46;63.86
64853;BME280;56050;55.558;-4.644;2022-08-19T03:21:02;100817.59;;;16.45;63.73
64853;BME280;56050;55.558;-4.644;2022-08-19T03:23:28;100825.75;;;16.45;63.69
64853;BME280;56050;55.558;-4.644;2022-08-19T03:25:53;100828.22;;;16.40;63.87
64853;BME280;56050;55.558;-4.644;2022-08-19T03:28:19;100823.25;;;16.35;64.03
64853;BME280;56050;55.558;-4.644;2022-08-19T03:31:15;100820.28;;;16.29;64.19
64853;BME280;56050;55.558;-4.644;2022-08-19T03:33:40;100827.69;;;16.29;64.02
64853;BME280;56050;55.558;-4.644;2022-08-19T03:36:09;100817.97;;;16.28;63.89
64853;BME280;56050;55.558;-4.644;2022-08-19T03:38:37;100832.69;;;16.30;64.06
64853;BME280;56050;55.558;-4.644;2022-08-19T03:41:10;100827.25;;;16.30;63.85
64853;BME280;56050;55.558;-4.644;2022-08-19T03:43:37;100820.97;;;16.33;63.90
64853;BME280;56050;55.558;-4.644;2022-08-19T03:46:14;100822.50;;;16.34;64.10
64853;BME280;56050;55.558;-4.644;2022-08-19T03:48:42;100821.22;;;16.39;63.74
64853;BME280;56050;55.558;-4.644;2022-08-19T03:51:17;100823.50;;;16.40;63.86
64853;BME280;56050;55.558;-4.644;2022-08-19T03:53:45;100814.19;;;16.41;63.57
64853;BME280;56050;55.558;-4.644;2022-08-19T03:56:10;100821.16;;;16.42;63.85
64853;BME280;56050;55.558;-4.644;2022-08-19T03:58:36;100819.63;;;16.41;63.75
64853;BME280;56050;55.558;-4.644;2022-08-19T04:01:07;100823.50;;;16.40;63.75
64853;BME280;56050;55.558;-4.644;2022-08-19T04:03:33;100819.69;;;16.38;64.04
64853;BME280;56050;55.558;-4.644;2022-08-19T04:05:59;100822.50;;;16.34;63.61
64853;BME280;56050;55.558;-4.644;2022-08-19T04:08:33;100820.19;;;16.33;63.77
64853;BME280;56050;55.558;-4.644;2022-08-19T04:10:59;100825.22;;;16.34;63.93
64853;BME280;56050;55.558;-4.644;2022-08-19T04:13:24;100825.56;;;16.36;63.92
64853;BME280;56050;55.558;-4.644;2022-08-19T04:15:50;100829.06;;;16.37;63.69
64853;BME280;56050;55.558;-4.644;2022-08-19T04:18:16;100822.84;;;16.36;64.03
64853;BME280;56050;55.558;-4.644;2022-08-19T04:20:45;100827.19;;;16.34;64.28
64853;BME280;56050;55.558;-4.644;2022-08-19T04:23:12;100829.97;;;16.30;64.12
64853;BME280;56050;55.558;-4.644;2022-08-19T04:25:41;100823.84;;;16.26;64.31
64853;BME280;56050;55.558;-4.644;2022-08-19T04:28:08;100832.00;;;16.26;64.17
64853;BME280;56050;55.558;-4.644;2022-08-19T04:30:54;100838.63;;;16.25;64.16
64853;BME280;56050;55.558;-4.644;2022-08-19T04:33:23;100841.28;;;16.29;64.27
64853;BME280;56050;55.558;-4.644;2022-08-19T04:35:50;100842.38;;;16.31;64.33
64853;BME280;56050;55.558;-4.644;2022-08-19T04:38:20;100840.00;;;16.33;64.31
64853;BME280;56050;55.558;-4.644;2022-08-19T04:40:49;100845.00;;;16.35;64.29
64853;BME280;56050;55.558;-4.644;2022-08-19T04:43:35;100843.06;;;16.35;64.45
64853;BME280;56050;55.558;-4.644;2022-08-19T04:46:05;100846.53;;;16.36;64.48
64853;BME280;56050;55.558;-4.644;2022-08-19T04:48:31;100840.69;;;16.37;64.51
64853;BME280;56050;55.558;-4.644;2022-08-19T04:50:57;100846.88;;;16.38;64.15
64853;BME280;56050;55.558;-4.644;2022-08-19T04:53:27;100852.69;;;16.40;64.27
64853;BME280;56050;55.558;-4.644;2022-08-19T04:55:55;100850.72;;;16.40;64.23
64853;BME280;56050;55.558;-4.644;2022-08-19T04:58:22;100856.91;;;16.41;64.33
64853;BME280;56050;55.558;-4.644;2022-08-19T05:00:48;100850.72;;;16.40;64.22
64853;BME280;56050;55.558;-4.644;2022-08-19T05:03:13;100858.03;;;16.43;64.14
64853;BME280;56050;55.558;-4.644;2022-08-19T05:05:43;100856.06;;;16.44;64.30
64853;BME280;56050;55.558;-4.644;2022-08-19T05:08:13;100856.41;;;16.46;63.99
64853;BME280;56050;55.558;-4.644;2022-08-19T05:10:49;100859.13;;;16.46;64.07
64853;BME280;56050;55.558;-4.644;2022-08-19T05:13:17;100859.91;;;16.46;64.27
64853;BME280;56050;55.558;-4.644;2022-08-19T05:15:43;100859.56;;;16.44;64.38
64853;BME280;56050;55.558;-4.644;2022-08-19T05:18:09;100851.91;;;16.39;64.53
64853;BME280;56050;55.558;-4.644;2022-08-19T05:20:53;100844.94;;;16.38;64.42
64853;BME280;56050;55.558;-4.644;2022-08-19T05:23:38;100848.59;;;16.32;64.44
64853;BME280;56050;55.558;-4.644;2022-08-19T05:26:04;100850.69;;;16.24;64.34
64853;BME280;56050;55.558;-4.644;2022-08-19T05:28:29;100853.56;;;16.17;64.46
64853;BME280;56050;55.558;-4.644;2022-08-19T05:30:55;100856.78;;;16.12;64.64
64853;BME280;56050;55.558;-4.644;2022-08-19T05:33:22;100852.19;;;16.09;64.83
64853;BME280;56050;55.558;-4.644;2022-08-19T05:35:48;100861.16;;;16.06;64.88
64853;BME280;56050;55.558;-4.644;2022-08-19T05:38:15;100858.84;;;16.05;64.77
64853;BME280;56050;55.558;-4.644;2022-08-19T05:40:41;100856.91;;;16.05;64.91
64853;BME280;56050;55.558;-4.644;2022-08-19T05:43:07;100858.78;;;16.08;64.88
64853;BME280;56050;55.558;-4.644;2022-08-19T05:45:37;100866.09;;;16.11;65.17
64853;BME280;56050;55.558;-4.644;2022-08-19T05:48:03;100873.00;;;16.16;64.98
64853;BME280;56050;55.558;-4.644;2022-08-19T05:50:29;100870.97;;;16.20;64.86
64853;BME280;56050;55.558;-4.644;2022-08-19T05:52:55;100876.75;;;16.22;65.06
64853;BME280;56050;55.558;-4.644;2022-08-19T05:55:20;100872.03;;;16.26;64.77
64853;BME280;56050;55.558;-4.644;2022-08-19T05:57:46;100871.91;;;16.29;65.12
64853;BME280;56050;55.558;-4.644;2022-08-19T06:00:12;100873.47;;;16.30;65.01
64853;BME280;56050;55.558;-4.644;2022-08-19T06:02:39;100872.63;;;16.33;65.07
64853;BME280;56050;55.558;-4.644;2022-08-19T06:05:05;100877.91;;;16.40;65.11
64853;BME280;56050;55.558;-4.644;2022-08-19T06:07:38;100884.47;;;16.43;64.93
64853;BME280;56050;55.558;-4.644;2022-08-19T06:10:09;100885.22;;;16.43;64.82
64853;BME280;56050;55.558;-4.644;2022-08-19T06:12:35;100882.44;;;16.47;64.91
64853;BME280;56050;55.558;-4.644;2022-08-19T06:15:05;100878.53;;;16.48;65.06
64853;BME280;56050;55.558;-4.644;2022-08-19T06:17:31;100882.03;;;16.49;65.25
64853;BME280;56050;55.558;-4.644;2022-08-19T06:19:56;100885.59;;;16.45;65.01
64853;BME280;56050;55.558;-4.644;2022-08-19T06:22:23;100892.97;;;16.45;65.28
64853;BME280;56050;55.558;-4.644;2022-08-19T06:24:49;100892.53;;;16.46;65.24
64853;BME280;56050;55.558;-4.644;2022-08-19T06:27:18;100883.59;;;16.46;65.16
64853;BME280;56050;55.558;-4.644;2022-08-19T06:29:44;100885.16;;;16.47;65.30
64853;BME280;56050;55.558;-4.644;2022-08-19T06:32:11;100888.97;;;16.50;64.89
64853;BME280;56050;55.558;-4.644;2022-08-19T06:34:36;100898.69;;;16.51;65.18
64853;BME280;56050;55.558;-4.644;2022-08-19T06:37:02;100905.63;;;16.52;65.26
64853;BME280;56050;55.558;-4.644;2022-08-19T06:39:34;100900.19;;;16.52;65.21
64853;BME280;56050;55.558;-4.644;2022-08-19T06:42:03;100896.25;;;16.56;65.17
64853;BME280;56050;55.558;-4.644;2022-08-19T06:44:33;100904.34;;;16.60;65.03
64853;BME280;56050;55.558;-4.644;2022-08-19T06:47:05;100903.13;;;16.61;64.86
64853;BME280;56050;55.558;-4.644;2022-08-19T06:49:30;100908.91;;;16.63;64.81
64853;BME280;56050;55.558;-4.644;2022-08-19T06:51:56;100907.28;;;16.65;64.77
64853;BME280;56050;55.558;-4.644;2022-08-19T06:54:23;100915.06;;;16.67;64.80
64853;BME280;56050;55.558;-4.644;2022-08-19T06:56:48;100917.34;;;16.68;64.93
64853;BME280;56050;55.558;-4.644;2022-08-19T06:59:17;100914.22;;;16.70;64.83
64853;BME280;56050;55.558;-4.644;2022-08-19T07:01:45;100923.03;;;16.74;64.90
64853;BME280;56050;55.558;-4.644;2022-08-19T07:04:13;100920.25;;;16.77;64.43
64853;BME280;56050;55.558;-4.644;2022-08-19T07:06:39;100930.28;;;16.80;64.49
64853;BME280;56050;55.558;-4.644;2022-08-19T07:09:06;100929.84;;;16.82;64.45
64853;BME280;56050;55.558;-4.644;2022-08-19T07:11:32;100929.00;;;16.85;64.48
64853;BME280;56050;55.558;-4.644;2022-08-19T07:13:58;100927.81;;;16.86;64.29
64853;BME280;56050;55.558;-4.644;2022-08-19T07:16:23;100934.44;;;16.85;64.05
64853;BME280;56050;55.558;-4.644;2022-08-19T07:18:50;100929.38;;;16.87;64.46
64853;BME280;56050;55.558;-4.644;2022-08-19T07:21:19;100942.88;;;16.90;64.33
64853;BME280;56050;55.558;-4.644;2022-08-19T07:23:46;100934.97;;;16.96;64.03
64853;BME280;56050;55.558;-4.644;2022-08-19T07:26:16;100931.78;;;17.01;64.17
64853;BME280;56050;55.558;-4.644;2022-08-19T07:28:42;100936.34;;;17.04;63.89
64853;BME280;56050;55.558;-4.644;2022-08-19T07:31:14;100939.06;;;17.04;64.08
64853;BME280;56050;55.558;-4.644;2022-08-19T07:33:41;100936.78;;;17.02;63.97
64853;BME280;56050;55.558;-4.644;2022-08-19T07:36:10;100937.53;;;17.03;64.09
64853;BME280;56050;55.558;-4.644;2022-08-19T07:38:37;100932.44;;;17.05;64.21
64853;BME280;56050;55.558;-4.644;2022-08-19T07:41:03;100944.44;;;17.08;64.18
64853;BME280;56050;55.558;-4.644;2022-08-19T07:43:28;100943.91;;;17.13;64.24
64853;BME280;56050;55.558;-4.644;2022-08-19T07:45:54;100949.28;;;17.16;64.24
64853;BME280;56050;55.558;-4.644;2022-08-19T07:48:24;100952.19;;;17.25;64.26
64853;BME280;56050;55.558;-4.644;2022-08-19T07:50:55;100955.50;;;17.33;64.27
64853;BME280;56050;55.558;-4.644;2022-08-19T07:53:21;100956.84;;;17.41;64.29
64853;BME280;56050;55.558;-4.644;2022-08-19T07:55:47;100952.75;;;17.49;64.22
64853;BME280;56050;55.558;-4.644;2022-08-19T07:58:15;100959.31;;;17.51;63.98
64853;BME280;56050;55.558;-4.644;2022-08-19T08:00:41;100969.38;;;17.54;64.13
64853;BME280;56050;55.558;-4.644;2022-08-19T08:03:07;100969.31;;;17.58;64.03
64853;BME280;56050;55.558;-4.644;2022-08-19T08:05:34;100977.56;;;17.54;63.71
64853;BME280;56050;55.558;-4.644;2022-08-19T08:08:17;100982.63;;;17.52;63.64
64853;BME280;56050;55.558;-4.644;2022-08-19T08:11:07;100985.03;;;17.50;63.84
64853;BME280;56050;55.558;-4.644;2022-08-19T08:13:32;100980.00;;;17.49;63.80
64853;BME280;56050;55.558;-4.644;2022-08-19T08:16:00;100987.00;;;17.50;63.99
64853;BME280;56050;55.558;-4.644;2022-08-19T08:18:26;100980.59;;;17.56;63.96
64853;BME280;56050;55.558;-4.644;2022-08-19T08:20:51;100983.75;;;17.71;63.93
64853;BME280;56050;55.558;-4.644;2022-08-19T08:23:16;100983.38;;;17.85;63.84
64853;BME280;56050;55.558;-4.644;2022-08-19T08:25:54;100982.25;;;17.99;63.75
64853;BME280;56050;55.558;-4.644;2022-08-19T08:28:20;100995.34;;;18.04;63.02
64853;BME280;56050;55.558;-4.644;2022-08-19T08:30:47;100993.91;;;17.99;62.90
64853;BME280;56050;55.558;-4.644;2022-08-19T08:33:16;100999.38;;;17.99;63.41
64853;BME280;56050;55.558;-4.644;2022-08-19T08:35:42;101002.88;;;18.00;63.05
64853;BME280;56050;55.558;-4.644;2022-08-19T08:38:07;100998.28;;;17.97;62.84
64853;BME280;56050;55.558;-4.644;2022-08-19T08:43:22;101004.25;;;17.92;62.92
64853;BME280;56050;55.558;-4.644;2022-08-19T08:46:04;101012.94;;;17.87;63.03
64853;BME280;56050;55.558;-4.644;2022-08-19T08:51:03;101000.44;;;17.73;62.73
64853;BME280;56050;55.558;-4.644;2022-08-19T08:53:31;101001.41;;;17.67;62.65
64853;BME280;56050;55.558;-4.644;2022-08-19T08:55:58;101013.56;;;17.62;62.92
64853;BME280;56050;55.558;-4.644;2022-08-19T08:58:38;101007.78;;;17.60;62.80
64853;BME280;56050;55.558;-4.644;2022-08-19T09:01:09;101013.16;;;17.64;62.98
64853;BME280;56050;55.558;-4.644;2022-08-19T09:03:37;101008.03;;;17.66;62.64
64853;BME280;56050;55.558;-4.644;2022-08-19T09:06:07;101007.94;;;17.69;62.53
64853;BME280;56050;55.558;-4.644;2022-08-19T09:11:10;101007.66;;;17.80;62.73
64853;BME280;56050;55.558;-4.644;2022-08-19T09:13:48;101003.91;;;17.90;62.84
64853;BME280;56050;55.558;-4.644;2022-08-19T09:16:19;101000.47;;;18.02;62.64
64853;BME280;56050;55.558;-4.644;2022-08-19T09:18:49;100999.31;;;18.15;62.41
64853;BME280;56050;55.558;-4.644;2022-08-19T09:21:17;100993.50;;;18.30;62.43
64853;BME280;56050;55.558;-4.644;2022-08-19T09:23:43;100983.47;;;18.39;62.06
64853;BME280;56050;55.558;-4.644;2022-08-19T09:26:12;100990.38;;;18.44;62.06
64853;BME280;56050;55.558;-4.644;2022-08-19T09:28:41;100998.47;;;18.47;61.74
64853;BME280;56050;55.558;-4.644;2022-08-19T09:31:11;100992.28;;;18.59;61.51
64853;BME280;56050;55.558;-4.644;2022-08-19T09:33:37;100992.72;;;18.70;61.39
64853;BME280;56050;55.558;-4.644;2022-08-19T09:36:08;100995.69;;;18.76;61.25
64853;BME280;56050;55.558;-4.644;2022-08-19T09:38:35;100997.88;;;18.81;61.31
64853;BME280;56050;55.558;-4.644;2022-08-19T09:41:05;101000.19;;;18.83;61.12
64853;BME280;56050;55.558;-4.644;2022-08-19T09:43:32;100995.81;;;18.85;61.08
64853;BME280;56050;55.558;-4.644;2022-08-19T09:45:59;100998.75;;;18.91;61.02
64853;BME280;56050;55.558;-4.644;2022-08-19T09:48:25;100993.06;;;18.98;60.96
64853;BME280;56050;55.558;-4.644;2022-08-19T09:50:51;100992.97;;;19.01;60.86
64853;BME280;56050;55.558;-4.644;2022-08-19T09:53:16;100999.53;;;19.04;60.81
64853;BME280;56050;55.558;-4.644;2022-08-19T09:55:43;100996.47;;;19.02;60.54
64853;BME280;56050;55.558;-4.644;2022-08-19T09:58:08;100995.25;;;19.03;60.67
64853;BME280;56050;55.558;-4.644;2022-08-19T10:00:34;100992.75;;;19.08;60.55
64853;BME280;56050;55.558;-4.644;2022-08-19T10:03:01;100995.81;;;19.10;60.56
64853;BME280;56050;55.558;-4.644;2022-08-19T10:05:27;100996.59;;;19.11;60.35
64853;BME280;56050;55.558;-4.644;2022-08-19T10:08:11;101000.50;;;19.10;60.33
64853;BME280;56050;55.558;-4.644;2022-08-19T10:10:37;100992.75;;;19.08;60.04
64853;BME280;56050;55.558;-4.644;2022-08-19T10:13:02;100998.19;;;19.08;60.18
64853;BME280;56050;55.558;-4.644;2022-08-19T10:15:29;101001.50;;;19.16;60.10
64853;BME280;56050;55.558;-4.644;2022-08-19T10:17:55;100994.59;;;19.24;60.08
64853;BME280;56050;55.558;-4.644;2022-08-19T10:20:20;101004.75;;;19.23;59.17
64853;BME280;56050;55.558;-4.644;2022-08-19T10:22:48;100992.66;;;19.24;59.53
64853;BME280;56050;55.558;-4.644;2022-08-19T10:25:13;100990.22;;;19.26;59.11
64853;BME280;56050;55.558;-4.644;2022-08-19T10:27:41;100990.75;;;19.34;59.35
64853;BME280;56050;55.558;-4.644;2022-08-19T10:30:07;101002.13;;;19.45;59.45
64853;BME280;56050;55.558;-4.644;2022-08-19T10:32:33;101003.13;;;19.51;58.97
64853;BME280;56050;55.558;-4.644;2022-08-19T10:34:59;100997.66;;;19.51;58.70
64853;BME280;56050;55.558;-4.644;2022-08-19T10:37:24;100984.31;;;19.53;59.12
64853;BME280;56050;55.558;-4.644;2022-08-19T10:39:50;100991.63;;;19.56;58.79
64853;BME280;56050;55.558;-4.644;2022-08-19T10:42:15;100990.09;;;19.55;59.08
64853;BME280;56050;55.558;-4.644;2022-08-19T10:44:42;100992.28;;;19.60;58.89
64853;BME280;56050;55.558;-4.644;2022-08-19T10:47:08;100994.56;;;19.62;59.04
64853;BME280;56050;55.558;-4.644;2022-08-19T10:49:33;100992.59;;;19.62;58.98
64853;BME280;56050;55.558;-4.644;2022-08-19T10:52:19;101002.09;;;19.70;59.15
64853;BME280;56050;55.558;-4.644;2022-08-19T10:55:04;100997.91;;;19.78;58.59
64853;BME280;56050;55.558;-4.644;2022-08-19T10:57:48;100995.28;;;19.75;58.58
64853;BME280;56050;55.558;-4.644;2022-08-19T11:00:14;100995.28;;;19.75;58.58
64853;BME280;56050;55.558;-4.644;2022-08-19T11:02:40;100991.88;;;19.83;58.44
64853;BME280;56050;55.558;-4.644;2022-08-19T11:05:07;100995.50;;;19.80;58.23
64853;BME280;56050;55.558;-4.644;2022-08-19T11:07:32;100986.09;;;19.81;58.30
64853;BME280;56050;55.558;-4.644;2022-08-19T11:09:58;100989.78;;;19.87;58.68
64853;BME280;56050;55.558;-4.644;2022-08-19T11:12:23;100980.25;;;19.92;57.81
64853;BME280;56050;55.558;-4.644;2022-08-19T11:14:49;100987.38;;;19.89;58.22
64853;BME280;56050;55.558;-4.644;2022-08-19T11:17:15;100986.75;;;19.85;57.69
64853;BME280;56050;55.558;-4.644;2022-08-19T11:19:41;100993.97;;;19.79;58.29
64853;BME280;56050;55.558;-4.644;2022-08-19T11:22:08;100977.94;;;19.69;57.44
64853;BME280;56050;55.558;-4.644;2022-08-19T11:24:35;100989.56;;;19.60;58.17
64853;BME280;56050;55.558;-4.644;2022-08-19T11:27:05;100991.50;;;19.60;58.54
64853;BME280;56050;55.558;-4.644;2022-08-19T11:29:32;100987.13;;;19.62;58.56
64853;BME280;56050;55.558;-4.644;2022-08-19T11:31:59;100997.19;;;19.65;58.40
64853;BME280;56050;55.558;-4.644;2022-08-19T11:34:27;100992.03;;;19.67;58.24
64853;BME280;56050;55.558;-4.644;2022-08-19T11:36:54;100989.00;;;19.65;58.50
64853;BME280;56050;55.558;-4.644;2022-08-19T11:39:24;100984.28;;;19.66;58.30
64853;BME280;56050;55.558;-4.644;2022-08-19T11:41:51;100985.69;;;19.70;58.31
64853;BME280;56050;55.558;-4.644;2022-08-19T11:44:17;100977.38;;;19.74;58.65
64853;BME280;56050;55.558;-4.644;2022-08-19T11:46:44;100976.50;;;19.77;58.21
64853;BME280;56050;55.558;-4.644;2022-08-19T11:49:17;100976.91;;;19.75;58.22
64853;BME280;56050;55.558;-4.644;2022-08-19T11:51:47;100979.97;;;19.77;58.15
64853;BME280;56050;55.558;-4.644;2022-08-19T11:54:14;100975.84;;;19.73;57.95
64853;BME280;56050;55.558;-4.644;2022-08-19T11:56:41;100985.38;;;19.68;57.65
64853;BME280;56050;55.558;-4.644;2022-08-19T11:59:07;100982.44;;;19.63;57.89
64853;BME280;56050;55.558;-4.644;2022-08-19T12:01:34;100977.75;;;19.63;58.31
64853;BME280;56050;55.558;-4.644;2022-08-19T12:04:00;100974.28;;;19.72;58.06
64853;BME280;56050;55.558;-4.644;2022-08-19T12:06:29;100979.22;;;19.77;57.80
64853;BME280;56050;55.558;-4.644;2022-08-19T12:08:56;100974.50;;;19.77;57.82
64853;BME280;56050;55.558;-4.644;2022-08-19T12:11:22;100981.19;;;19.76;57.92
64853;BME280;56050;55.558;-4.644;2022-08-19T12:13:48;100980.50;;;19.85;58.12
64853;BME280;56050;55.558;-4.644;2022-08-19T12:16:19;100976.50;;;19.99;58.20
64853;BME280;56050;55.558;-4.644;2022-08-19T12:18:45;100978.88;;;20.09;57.54
64853;BME280;56050;55.558;-4.644;2022-08-19T12:21:15;100988.03;;;20.15;57.38
64853;BME280;56050;55.558;-4.644;2022-08-19T12:23:43;100987.88;;;20.19;57.59
64853;BME280;56050;55.558;-4.644;2022-08-19T12:26:11;100989.97;;;20.27;57.48
64853;BME280;56050;55.558;-4.644;2022-08-19T12:28:37;100988.63;;;20.32;56.95
64853;BME280;56050;55.558;-4.644;2022-08-19T12:31:03;100976.81;;;20.35;56.92
64853;BME280;56050;55.558;-4.644;2022-08-19T12:33:29;100986.72;;;20.41;56.76
64853;BME280;56050;55.558;-4.644;2022-08-19T12:36:00;100982.97;;;20.48;56.77
64853;BME280;56050;55.558;-4.644;2022-08-19T12:38:27;100986.66;;;20.54;56.57
64853;BME280;56050;55.558;-4.644;2022-08-19T12:40:53;100988.16;;;20.55;56.27
64853;BME280;56050;55.558;-4.644;2022-08-19T12:43:18;100989.69;;;20.56;56.53
64853;BME280;56050;55.558;-4.644;2022-08-19T12:45:45;100991.34;;;20.54;56.28
64853;BME280;56050;55.558;-4.644;2022-08-19T12:48:11;100986.31;;;20.52;56.45
64853;BME280;56050;55.558;-4.644;2022-08-19T12:50:42;100985.88;;;20.54;56.36
64853;BME280;56050;55.558;-4.644;2022-08-19T12:53:10;100978.28;;;20.58;56.52